createdAt,value
2018-06-24T00:00:45.322Z,8.60
2018-06-24T00:05:48.480Z,8.10
2018-06-24T00:10:52.609Z,6.30
2018-06-24T00:15:56.184Z,5.50
2018-06-24T00:21:00.574Z,6.10
2018-06-24T00:26:03.772Z,6.70
2018-06-24T00:31:06.848Z,6.77
2018-06-24T00:36:10.172Z,7.33
2018-06-24T00:41:14.154Z,6.73
2018-06-24T00:46:17.034Z,6.80
2018-06-24T00:51:20.138Z,8.90
2018-06-24T00:56:23.046Z,9.43
2018-06-24T01:01:26.110Z,9.23
2018-06-24T01:06:28.977Z,10.10
2018-06-24T01:11:32.333Z,9.00
2018-06-24T01:16:35.673Z,8.87
2018-06-24T01:21:38.683Z,9.73
2018-06-24T01:26:41.844Z,10.50
2018-06-24T01:31:44.947Z,11.33
2018-06-24T01:36:48.177Z,11.43
2018-06-24T01:41:52.706Z,12.33
2018-06-24T01:46:55.568Z,13.43
2018-06-24T01:51:58.497Z,13.77
2018-06-24T01:57:01.696Z,13.23
2018-06-24T02:02:05.004Z,12.40
2018-06-24T02:07:08.132Z,13.27
2018-06-24T02:12:11.503Z,11.67
2018-06-24T02:17:15.700Z,11.00
2018-06-24T02:22:18.584Z,11.70
2018-06-24T02:27:22.084Z,12.50
2018-06-24T02:32:25.236Z,13.53
2018-06-24T02:37:28.555Z,15.67
2018-06-24T02:42:31.748Z,17.00
2018-06-24T02:47:35.181Z,15.40
2018-06-24T02:52:38.390Z,15.50
2018-06-24T02:57:41.914Z,15.10
2018-06-24T03:02:44.918Z,16.00
2018-06-24T03:07:48.208Z,17.60
2018-06-24T03:12:52.091Z,16.73
2018-06-24T03:18:03.551Z,16.13
2018-06-24T03:23:15.322Z,13.47
2018-06-24T03:28:22.782Z,14.00
2018-06-24T03:33:32.912Z,13.30
2018-06-24T03:38:37.936Z,14.80
2018-06-24T03:43:48.300Z,13.57
2018-06-24T03:48:51.633Z,11.53
2018-06-24T03:53:55.177Z,11.47
2018-06-24T03:58:58.649Z,10.40
2018-06-24T04:04:01.807Z,9.13
2018-06-24T04:09:06.289Z,9.70
2018-06-24T04:14:09.523Z,10.90
2018-06-24T04:19:12.910Z,10.90
2018-06-24T04:24:16.345Z,8.70
2018-06-24T04:29:19.836Z,8.00
2018-06-24T04:34:22.891Z,8.17
2018-06-24T04:39:26.563Z,7.20
2018-06-24T04:44:29.721Z,7.70
2018-06-24T04:49:32.597Z,8.73
2018-06-24T04:54:36.293Z,9.47
2018-06-24T04:59:40.108Z,7.40
2018-06-24T05:04:43.330Z,7.20
2018-06-24T05:09:46.650Z,7.40
2018-06-24T05:14:49.806Z,9.20
2018-06-24T05:19:53.257Z,9.23
2018-06-24T06:11:12.451Z,5.17
2018-06-24T06:16:16.201Z,3.93
2018-06-24T06:21:19.052Z,3.73
2018-06-24T06:26:22.371Z,3.67
2018-06-24T06:31:26.525Z,3.00
2018-06-24T06:36:29.400Z,3.63
2018-06-24T06:41:33.027Z,3.37
2018-06-24T06:46:36.520Z,4.00
2018-06-24T06:51:39.629Z,3.60
2018-06-24T06:56:42.895Z,4.93
2018-06-24T07:01:45.796Z,5.20
2018-06-24T07:06:48.675Z,5.07
2018-06-24T07:11:54.033Z,5.00
2018-06-24T07:16:58.060Z,6.40
2018-06-24T07:22:01.795Z,6.83
2018-06-24T07:27:04.881Z,8.10
2018-06-24T07:32:11.072Z,7.90
2018-06-24T07:37:14.730Z,4.90
2018-06-24T07:42:23.258Z,4.67
2018-06-24T07:47:31.357Z,5.13
2018-06-24T07:52:37.431Z,3.80
2018-06-24T07:57:42.758Z,2.60
2018-06-24T08:02:46.522Z,2.27
2018-06-24T08:07:50.321Z,3.07
2018-06-24T08:12:56.124Z,2.17
2018-06-24T08:17:59.007Z,2.20
2018-06-24T08:23:02.476Z,2.53
2018-06-24T08:28:05.472Z,1.93
2018-06-24T08:33:08.728Z,1.93
2018-06-24T08:38:11.662Z,2.13
2018-06-24T08:43:15.897Z,2.30
2018-06-24T08:48:19.218Z,2.27
2018-06-24T08:53:22.186Z,2.13
2018-06-24T08:58:25.164Z,2.00
2018-06-24T09:03:28.122Z,2.40
2018-06-24T09:08:31.045Z,2.93
2018-06-24T09:13:34.315Z,3.37
2018-06-24T09:18:37.450Z,2.97
2018-06-24T09:23:41.524Z,2.90
2018-06-24T09:28:46.162Z,2.77
2018-06-24T09:33:49.195Z,3.40
2018-06-24T09:38:52.266Z,3.60
2018-06-24T09:43:55.269Z,2.17
2018-06-24T09:48:58.192Z,3.00
2018-06-24T09:54:01.223Z,3.07
2018-06-24T09:59:12.659Z,3.87
2018-06-24T10:04:16.174Z,5.87
2018-06-24T10:09:24.239Z,3.70
2018-06-24T10:14:36.119Z,3.50
2018-06-24T10:19:39.844Z,4.10
2018-06-24T10:24:44.140Z,3.70
2018-06-24T10:29:47.250Z,3.57
2018-06-24T10:34:50.157Z,4.93
2018-06-24T10:39:53.201Z,4.57
2018-06-24T10:44:56.131Z,3.20
2018-06-24T10:49:59.026Z,3.63
2018-06-24T10:55:02.020Z,4.60
2018-06-24T11:00:05.098Z,4.23
2018-06-24T11:05:08.633Z,3.90
2018-06-24T11:10:11.505Z,3.60
2018-06-24T11:15:14.953Z,3.93
2018-06-24T11:20:18.367Z,4.00
2018-06-24T11:25:21.361Z,3.53
2018-06-24T11:30:24.844Z,3.07
2018-06-24T11:35:28.208Z,3.63
2018-06-24T11:40:31.215Z,3.57
2018-06-24T11:45:34.174Z,4.50
2018-06-24T11:50:37.154Z,3.87
2018-06-24T11:55:40.746Z,4.80
2018-06-24T12:00:44.430Z,4.33
2018-06-24T12:05:48.110Z,4.50
2018-06-24T12:10:51.471Z,3.47
2018-06-24T12:15:55.309Z,3.10
2018-06-24T12:20:58.575Z,3.70
2018-06-24T12:26:01.903Z,3.40
2018-06-24T12:31:05.474Z,3.60
2018-06-24T12:36:08.849Z,3.63
2018-06-24T12:41:12.244Z,4.17
2018-06-24T12:46:16.225Z,4.37
2018-06-24T12:51:20.060Z,4.33
2018-06-24T12:56:24.097Z,4.73
2018-06-24T13:01:27.812Z,4.67
2018-06-24T13:06:31.509Z,4.00
2018-06-24T13:11:35.276Z,4.70
2018-06-24T13:16:38.961Z,3.53
2018-06-24T13:21:42.307Z,3.70
2018-06-24T13:26:45.831Z,4.10
2018-06-24T13:31:49.437Z,4.60
2018-06-24T13:36:52.612Z,4.17
2018-06-24T13:41:56.664Z,4.03
2018-06-24T13:47:00.390Z,4.00
2018-06-24T13:52:04.449Z,3.80
2018-06-24T13:57:07.955Z,4.50
2018-06-24T14:02:11.518Z,4.10
2018-06-24T14:07:14.594Z,3.67
2018-06-24T14:12:17.975Z,4.47
2018-06-24T14:17:21.659Z,3.87
2018-06-24T14:22:31.797Z,4.17
2018-06-24T14:27:35.314Z,4.57
2018-06-24T14:32:38.661Z,4.40
2018-06-24T14:37:42.520Z,3.77
2018-06-24T14:42:45.956Z,3.97
2018-06-24T14:47:49.944Z,3.67
2018-06-24T14:52:53.346Z,4.10
2018-06-24T14:57:56.791Z,3.93
2018-06-24T15:03:00.149Z,4.07
2018-06-24T15:08:03.950Z,3.40
2018-06-24T15:13:07.318Z,4.23
2018-06-24T15:18:11.399Z,4.10
2018-06-24T15:23:15.135Z,5.23
2018-06-24T15:28:18.550Z,4.37
2018-06-24T15:33:22.097Z,4.00
2018-06-24T15:38:25.634Z,3.70
2018-06-24T15:43:29.057Z,4.80
2018-06-24T15:48:32.662Z,3.77
2018-06-24T15:53:36.153Z,3.80
2018-06-24T15:58:39.416Z,3.83
2018-06-24T16:03:43.104Z,3.53
2018-06-24T16:08:46.380Z,4.47
2018-06-24T16:13:49.784Z,4.20
2018-06-24T16:18:53.225Z,3.97
2018-06-24T16:23:57.847Z,4.43
2018-06-24T16:29:01.182Z,4.63
2018-06-24T16:34:05.339Z,4.80
2018-06-24T16:39:10.641Z,4.57
2018-06-24T16:44:14.220Z,3.70
2018-06-24T16:49:17.752Z,4.10
2018-06-24T16:54:21.651Z,5.63
2018-06-24T16:59:25.320Z,4.47
2018-06-24T17:04:29.218Z,5.80
2018-06-24T17:09:32.557Z,5.20
2018-06-24T17:14:35.895Z,5.90
2018-06-24T17:19:39.468Z,5.00
2018-06-24T17:24:43.463Z,5.20
2018-06-24T17:29:46.978Z,4.47
2018-06-24T17:34:50.451Z,5.13
2018-06-24T17:39:53.861Z,5.17
2018-06-24T17:44:57.903Z,5.27
2018-06-24T17:50:02.828Z,4.40
2018-06-24T17:55:12.568Z,5.40
2018-06-24T18:00:17.448Z,4.67
2018-06-24T18:05:25.167Z,5.37
2018-06-24T18:10:30.852Z,4.70
2018-06-24T18:15:34.797Z,4.67
2018-06-24T18:20:38.979Z,5.77
2018-06-24T18:25:43.065Z,4.73
2018-06-24T18:30:47.535Z,5.40
2018-06-24T18:35:52.682Z,6.03
2018-06-24T18:40:56.765Z,5.63
2018-06-24T18:46:01.226Z,5.47
2018-06-24T18:51:05.296Z,5.47
2018-06-24T18:56:09.416Z,6.87
2018-06-24T19:01:13.351Z,4.53
2018-06-24T19:06:18.130Z,5.00
2018-06-24T19:11:22.380Z,5.67
2018-06-24T19:16:27.230Z,5.17
2018-06-24T19:21:31.716Z,5.90
2018-06-24T19:26:36.522Z,6.03
2018-06-24T19:31:40.633Z,4.97
2018-06-24T19:36:45.415Z,6.50
2018-06-24T19:41:49.789Z,6.47
2018-06-24T19:46:53.515Z,5.80
2018-06-24T19:51:58.172Z,5.83
2018-06-24T19:57:02.282Z,5.60
2018-06-24T20:02:05.786Z,5.83
2018-06-24T20:07:10.353Z,5.10
2018-06-24T20:12:13.907Z,6.03
2018-06-24T20:17:18.015Z,7.07
2018-06-24T20:22:21.421Z,7.67
2018-06-24T20:27:26.718Z,7.07
2018-06-24T20:32:30.139Z,6.40
2018-06-24T20:37:33.633Z,7.30
2018-06-24T20:42:36.772Z,7.93
2018-06-24T20:47:39.780Z,6.47
2018-06-24T20:52:43.026Z,7.70
2018-06-24T20:57:46.271Z,7.43
2018-06-24T21:02:49.766Z,8.10
2018-06-24T21:07:53.444Z,9.00
2018-06-24T21:12:56.474Z,8.73
2018-06-24T21:17:59.709Z,7.60
2018-06-24T21:23:02.705Z,7.57
2018-06-24T21:28:05.612Z,6.30
2018-06-24T21:33:09.073Z,7.60
2018-06-24T21:38:12.746Z,7.70
2018-06-24T21:43:15.628Z,7.03
2018-06-24T21:48:18.829Z,7.27
2018-06-24T21:53:21.879Z,7.00
2018-06-24T21:58:25.634Z,7.30
2018-06-24T22:03:29.393Z,7.30
2018-06-24T22:08:33.501Z,6.70
2018-06-24T22:13:37.078Z,10.13
2018-06-24T22:18:40.707Z,7.60
2018-06-24T22:23:44.399Z,7.67
2018-06-24T22:28:47.877Z,7.63
2018-06-24T22:33:51.593Z,6.43
2018-06-24T22:39:00.759Z,8.10
2018-06-24T22:44:07.711Z,7.07
2018-06-24T22:49:10.866Z,6.63
2018-06-24T22:54:14.110Z,7.73
2018-06-24T22:59:29.089Z,9.20
2018-06-24T23:04:33.186Z,7.23
2018-06-24T23:09:36.835Z,8.53
2018-06-24T23:14:42.560Z,7.77
2018-06-24T23:19:46.547Z,6.73
2018-06-24T23:24:49.870Z,7.53
2018-06-24T23:29:54.385Z,8.27
2018-06-24T23:34:58.001Z,7.97
2018-06-24T23:40:02.464Z,7.60
2018-06-24T23:45:08.712Z,11.00
2018-06-24T23:50:15.308Z,8.63
2018-06-24T23:55:21.610Z,8.93
